createdAt,value
2023-01-07T00:01:16.965Z,101432.69
2023-01-07T00:03:44.741Z,101427.56
2023-01-07T00:06:23.194Z,101422.16
2023-01-07T00:08:51.460Z,101421.22
2023-01-07T00:11:20.894Z,101422.06
2023-01-07T00:13:52.212Z,101409.50
2023-01-07T00:16:21.138Z,101412.72
2023-01-07T00:18:48.211Z,101416.78
2023-01-07T00:21:16.771Z,101415.59
2023-01-07T00:23:45.229Z,101407.13
2023-01-07T00:26:14.270Z,101411.38
2023-01-07T00:28:43.498Z,101422.09
2023-01-07T00:31:14.251Z,101418.78
2023-01-07T00:34:06.508Z,101404.25
2023-01-07T00:36:42.792Z,101413.50
2023-01-07T00:39:13.820Z,101413.88
2023-01-07T00:41:40.297Z,101414.31
2023-01-07T00:44:08.103Z,101412.16
2023-01-07T00:46:34.604Z,101410.16
2023-01-07T00:49:02.016Z,101411.44
2023-01-07T00:51:28.509Z,101411.81
2023-01-07T00:53:54.920Z,101414.16
2023-01-07T00:56:21.392Z,101410.22
2023-01-07T00:58:47.828Z,101394.88
2023-01-07T01:01:14.381Z,101387.44
2023-01-07T01:03:40.949Z,101391.25
2023-01-07T01:06:16.632Z,101392.25
2023-01-07T01:08:46.875Z,101388.63
2023-01-07T01:11:14.297Z,101390.81
2023-01-07T01:13:41.325Z,101398.28
2023-01-07T01:16:10.528Z,101398.28
2023-01-07T01:18:37.896Z,101390.56
2023-01-07T01:21:06.313Z,101384.06
2023-01-07T01:23:33.007Z,101384.81
2023-01-07T01:26:04.406Z,101377.34
2023-01-07T01:28:31.555Z,101376.38
2023-01-07T01:30:57.929Z,101367.78
2023-01-07T01:33:24.353Z,101369.94
2023-01-07T01:35:50.868Z,101367.28
2023-01-07T01:38:17.264Z,101368.88
2023-01-07T01:40:43.689Z,101361.63
2023-01-07T01:43:34.028Z,101371.81
2023-01-07T01:46:20.696Z,101383.44
2023-01-07T01:49:07.662Z,101377.50
2023-01-07T01:51:38.756Z,101373.53
2023-01-07T01:54:09.299Z,101374.28
2023-01-07T01:56:41.004Z,101371.00
2023-01-07T01:59:13.990Z,101367.78
2023-01-07T02:01:40.889Z,101366.19
2023-01-07T02:04:15.343Z,101363.81
2023-01-07T02:06:46.633Z,101357.97
2023-01-07T02:09:13.790Z,101347.94
2023-01-07T02:11:56.272Z,101356.53
2023-01-07T02:14:53.420Z,101357.66
2023-01-07T02:17:29.697Z,101348.41
2023-01-07T02:20:21.542Z,101353.75
2023-01-07T02:23:21.743Z,101347.91
2023-01-07T02:26:25.586Z,101340.03
2023-01-07T02:29:20.058Z,101326.31
2023-01-07T02:32:05.459Z,101329.72
2023-01-07T02:35:02.903Z,101323.06
2023-01-07T02:38:09.369Z,101323.38
2023-01-07T02:40:50.345Z,101331.84
2023-01-07T02:43:26.204Z,101318.41
2023-01-07T02:46:10.252Z,101314.63
2023-01-07T02:48:37.853Z,101307.50
2023-01-07T02:51:04.337Z,101307.22
2023-01-07T02:53:31.976Z,101306.84
2023-01-07T02:56:28.716Z,101308.53
2023-01-07T02:59:11.376Z,101300.53
2023-01-07T03:01:37.792Z,101300.28
2023-01-07T03:04:38.480Z,101294.31
2023-01-07T03:07:13.645Z,101291.66
2023-01-07T03:10:04.643Z,101288.63
2023-01-07T03:13:04.310Z,101288.97
2023-01-07T03:15:40.004Z,101289.53
2023-01-07T03:18:13.264Z,101287.44
2023-01-07T03:20:43.119Z,101287.56
2023-01-07T03:23:13.916Z,101289.34
2023-01-07T03:25:45.425Z,101281.91
2023-01-07T03:28:17.477Z,101275.88
2023-01-07T03:30:45.470Z,101276.06
2023-01-07T03:33:16.618Z,101284.25
2023-01-07T03:35:47.900Z,101280.47
2023-01-07T03:38:16.943Z,101275.59
2023-01-07T03:40:43.587Z,101278.25
2023-01-07T03:43:14.360Z,101271.94
2023-01-07T03:45:42.364Z,101269.75
2023-01-07T03:48:08.888Z,101266.66
2023-01-07T03:50:35.364Z,101268.78
2023-01-07T03:53:01.856Z,101257.41
2023-01-07T03:55:28.396Z,101250.63
2023-01-07T03:57:55.886Z,101250.56
2023-01-07T04:00:22.315Z,101254.88
2023-01-07T04:02:48.721Z,101255.06
2023-01-07T04:05:15.387Z,101247.31
2023-01-07T04:07:42.058Z,101244.03
2023-01-07T04:10:09.225Z,101246.03
2023-01-07T04:12:36.210Z,101237.47
2023-01-07T04:15:03.557Z,101243.22
2023-01-07T04:17:30.220Z,101232.69
2023-01-07T04:19:56.628Z,101241.00
2023-01-07T04:22:23.053Z,101222.00
2023-01-07T04:24:49.502Z,101226.81
2023-01-07T04:27:17.336Z,101214.03
2023-01-07T04:29:43.905Z,101220.81
2023-01-07T04:32:10.326Z,101221.66
2023-01-07T04:34:36.694Z,101221.34
2023-01-07T04:37:03.109Z,101208.00
2023-01-07T04:39:29.640Z,101217.84
2023-01-07T04:41:56.053Z,101212.22
2023-01-07T04:44:22.684Z,101214.63
2023-01-07T04:46:49.086Z,101211.00
2023-01-07T04:49:15.475Z,101215.47
2023-01-07T04:51:41.954Z,101207.06
2023-01-07T04:54:08.376Z,101210.44
2023-01-07T04:56:34.774Z,101214.50
2023-01-07T04:59:01.465Z,101215.22
2023-01-07T05:01:30.882Z,101212.41
2023-01-07T05:03:57.536Z,101209.03
2023-01-07T05:06:24.277Z,101215.22
2023-01-07T05:08:50.705Z,101217.63
2023-01-07T05:11:21.569Z,101213.41
2023-01-07T05:13:49.822Z,101216.66
2023-01-07T05:16:17.263Z,101216.38
2023-01-07T05:18:44.027Z,101210.91
2023-01-07T05:21:11.004Z,101204.97
2023-01-07T05:23:37.791Z,101217.81
2023-01-07T05:26:04.267Z,101211.34
2023-01-07T05:28:30.700Z,101210.50
2023-01-07T05:30:57.137Z,101209.50
2023-01-07T05:33:23.570Z,101207.81
2023-01-07T05:35:49.972Z,101201.06
2023-01-07T05:38:16.462Z,101202.03
2023-01-07T05:40:43.312Z,101205.41
2023-01-07T05:43:09.724Z,101201.91
2023-01-07T05:45:36.135Z,101188.13
2023-01-07T05:48:02.553Z,101204.03
2023-01-07T05:50:29.226Z,101200.06
2023-01-07T05:52:55.676Z,101206.56
2023-01-07T05:55:22.189Z,101200.97
2023-01-07T05:57:48.624Z,101192.94
2023-01-07T06:00:15.378Z,101204.06
2023-01-07T06:02:41.823Z,101203.06
2023-01-07T06:05:08.993Z,101200.13
2023-01-07T06:07:35.615Z,101204.47
2023-01-07T06:10:03.249Z,101203.38
2023-01-07T06:12:30.417Z,101213.78
2023-01-07T06:14:56.928Z,101215.31
2023-01-07T06:17:23.336Z,101208.25
2023-01-07T06:19:49.842Z,101207.16
2023-01-07T06:22:16.447Z,101216.84
2023-01-07T06:24:42.877Z,101214.88
2023-01-07T06:27:10.298Z,101211.38
2023-01-07T06:29:36.800Z,101216.72
2023-01-07T06:32:03.370Z,101203.75
2023-01-07T06:34:30.089Z,101209.41
2023-01-07T06:36:57.140Z,101211.94
2023-01-07T06:39:23.701Z,101213.50
2023-01-07T06:41:50.431Z,101206.16
2023-01-07T06:44:16.846Z,101209.53
2023-01-07T06:46:43.375Z,101211.06
2023-01-07T06:49:10.010Z,101207.56
2023-01-07T06:51:36.484Z,101201.81
2023-01-07T06:54:03.269Z,101201.22
2023-01-07T06:56:29.666Z,101209.94
2023-01-07T06:58:56.123Z,101197.84
2023-01-07T07:01:22.740Z,101200.81
2023-01-07T07:03:49.235Z,101208.69
2023-01-07T07:06:15.706Z,101208.69
2023-01-07T07:08:42.167Z,101210.66
2023-01-07T07:11:08.874Z,101211.22
2023-01-07T07:13:35.318Z,101208.41
2023-01-07T07:16:02.014Z,101199.41
2023-01-07T07:18:28.479Z,101190.66
2023-01-07T07:20:54.976Z,101210.25
2023-01-07T07:23:21.378Z,101202.34
2023-01-07T07:25:47.914Z,101199.38
2023-01-07T07:28:14.409Z,101199.25
2023-01-07T07:30:45.828Z,101203.91
2023-01-07T07:33:15.117Z,101192.63
2023-01-07T07:35:42.012Z,101200.91
2023-01-07T07:38:08.462Z,101200.06
2023-01-07T07:40:35.056Z,101200.78
2023-01-07T07:43:10.549Z,101203.06
2023-01-07T07:45:39.701Z,101201.63
2023-01-07T07:48:07.571Z,101190.91
2023-01-07T07:50:34.732Z,101203.16
2023-01-07T07:53:01.471Z,101199.50
2023-01-07T07:55:28.186Z,101198.66
2023-01-07T07:57:55.643Z,101188.09
2023-01-07T08:00:22.892Z,101196.69
2023-01-07T08:02:49.431Z,101194.72
2023-01-07T08:05:16.203Z,101194.84
2023-01-07T08:07:42.924Z,101191.91
2023-01-07T08:10:09.640Z,101191.75
2023-01-07T08:12:40.005Z,101187.91
2023-01-07T08:15:08.086Z,101185.09
2023-01-07T08:17:36.172Z,101180.75
2023-01-07T08:20:07.420Z,101181.31
2023-01-07T08:22:34.349Z,101182.16
2023-01-07T08:25:01.162Z,101173.28
2023-01-07T08:27:28.174Z,101177.22
2023-01-07T08:29:55.207Z,101170.16
2023-01-07T08:32:22.215Z,101167.34
2023-01-07T08:34:48.721Z,101162.56
2023-01-07T08:37:15.264Z,101160.03
2023-01-07T08:39:41.809Z,101163.13
2023-01-07T08:42:08.324Z,101169.75
2023-01-07T08:44:34.744Z,101154.41
2023-01-07T08:47:01.796Z,101158.06
2023-01-07T08:49:28.202Z,101157.50
2023-01-07T08:51:54.617Z,101160.88
2023-01-07T08:54:21.087Z,101153.31
2023-01-07T08:56:47.475Z,101147.50
2023-01-07T08:59:14.020Z,101155.38
2023-01-07T09:01:40.591Z,101142.00
2023-01-07T09:04:07.152Z,101151.56
2023-01-07T09:06:33.557Z,101147.06
2023-01-07T09:09:00.301Z,101141.72
2023-01-07T09:11:26.779Z,101141.56
2023-01-07T09:13:53.314Z,101142.41
2023-01-07T09:16:19.778Z,101145.78
2023-01-07T09:18:46.364Z,101144.34
2023-01-07T09:21:12.822Z,101147.72
2023-01-07T09:23:40.373Z,101154.06
2023-01-07T09:26:06.863Z,101149.41
2023-01-07T09:28:33.539Z,101158.56
2023-01-07T09:31:00.774Z,101155.47
2023-01-07T09:33:27.426Z,101149.81
2023-01-07T09:35:53.892Z,101153.72
2023-01-07T09:38:20.301Z,101154.28
2023-01-07T09:40:47.672Z,101146.69
2023-01-07T09:43:20.142Z,101146.38
2023-01-07T09:45:52.931Z,101158.78
2023-01-07T09:48:26.817Z,101152.03
2023-01-07T09:50:59.252Z,101145.53
2023-01-07T09:53:53.864Z,101143.00
2023-01-07T09:56:20.371Z,101137.63
2023-01-07T09:58:48.593Z,101143.53
2023-01-07T10:01:38.564Z,101130.81
2023-01-07T10:04:52.639Z,101132.22
2023-01-07T10:07:32.518Z,101119.25
2023-01-07T10:10:08.381Z,101134.31
2023-01-07T10:13:16.791Z,101114.84
2023-01-07T10:16:11.380Z,101123.13
2023-01-07T10:18:43.802Z,101136.50
2023-01-07T10:21:19.134Z,101124.81
2023-01-07T10:23:50.419Z,101132.94
2023-01-07T10:26:42.547Z,101129.38
2023-01-07T10:29:41.513Z,101115.53
2023-01-07T10:32:16.962Z,101120.13
2023-01-07T10:34:47.578Z,101113.25
2023-01-07T10:37:37.266Z,101115.06
2023-01-07T10:40:12.790Z,101107.22
2023-01-07T10:42:54.618Z,101107.97
2023-01-07T10:45:33.253Z,101112.19
2023-01-07T10:48:21.278Z,101107.66
2023-01-07T10:51:01.142Z,101104.00
2023-01-07T10:53:36.589Z,101095.00
2023-01-07T10:56:26.147Z,101094.69
2023-01-07T10:58:52.587Z,101095.69
2023-01-07T11:01:27.196Z,101083.44
2023-01-07T11:03:55.976Z,101088.50
2023-01-07T11:06:41.154Z,101084.50
2023-01-07T11:09:13.715Z,101084.97
2023-01-07T11:11:41.887Z,101080.06
2023-01-07T11:14:36.002Z,101074.09
2023-01-07T11:17:31.667Z,101066.66
2023-01-07T11:19:58.130Z,101062.38
2023-01-07T11:22:27.392Z,101072.31
2023-01-07T11:24:55.414Z,101063.78
2023-01-07T11:27:24.813Z,101057.56
2023-01-07T11:30:05.548Z,101055.38
2023-01-07T11:32:35.179Z,101058.06
2023-01-07T11:35:17.964Z,101058.59
2023-01-07T11:37:47.769Z,101053.09
2023-01-07T11:40:14.229Z,101050.38
2023-01-07T11:43:16.183Z,101051.72
2023-01-07T11:46:20.337Z,101046.50
2023-01-07T11:48:42.837Z,101046.03
2023-01-07T11:51:10.957Z,101045.88
2023-01-07T11:53:46.265Z,101039.38
2023-01-07T11:56:22.356Z,101030.66
2023-01-07T11:59:15.447Z,101033.16
2023-01-07T12:01:53.650Z,101022.44
2023-01-07T12:04:26.372Z,101024.44
2023-01-07T12:06:58.673Z,101014.31
2023-01-07T12:09:34.449Z,101022.75
2023-01-07T12:12:30.159Z,101018.78
2023-01-07T12:14:58.572Z,101014.72
2023-01-07T12:17:26.305Z,101018.63
2023-01-07T12:20:07.971Z,101011.59
2023-01-07T12:22:52.520Z,101003.72
2023-01-07T12:25:34.613Z,101001.38
2023-01-07T12:28:12.892Z,100991.69
2023-01-07T12:31:00.675Z,100992.66
2023-01-07T12:34:02.707Z,100994.19
2023-01-07T12:36:46.729Z,100995.88
2023-01-07T12:39:39.269Z,100986.88
2023-01-07T12:42:24.656Z,100981.50
2023-01-07T12:44:56.551Z,100981.00
2023-01-07T12:47:32.107Z,100986.00
2023-01-07T12:50:46.412Z,100981.00
2023-01-07T12:53:15.316Z,100968.53
2023-01-07T12:55:52.233Z,100970.38
2023-01-07T12:58:22.155Z,100964.97
2023-01-07T13:00:57.807Z,100962.16
2023-01-07T13:03:55.630Z,100966.97
2023-01-07T13:06:44.398Z,100958.25
2023-01-07T13:09:44.909Z,100950.81
2023-01-07T13:12:46.274Z,100955.00
2023-01-07T13:15:27.885Z,100947.72
2023-01-07T13:18:18.910Z,100939.00
2023-01-07T13:21:12.620Z,100943.84
2023-01-07T13:24:03.458Z,100941.94
2023-01-07T13:26:39.574Z,100936.44
2023-01-07T13:29:11.940Z,100934.22
2023-01-07T13:32:07.783Z,100938.41
2023-01-07T13:35:14.611Z,100930.22
2023-01-07T13:37:40.965Z,100931.53
2023-01-07T13:40:16.906Z,100922.50
2023-01-07T13:42:57.617Z,100926.81
2023-01-07T13:45:28.851Z,100915.59
2023-01-07T13:47:58.781Z,100918.13
2023-01-07T13:50:29.192Z,100893.81
2023-01-07T13:52:58.384Z,100907.75
2023-01-07T13:55:34.492Z,100902.75
2023-01-07T13:58:02.779Z,100896.03
2023-01-07T14:00:37.106Z,100902.75
2023-01-07T14:03:03.625Z,100898.38
2023-01-07T14:05:30.414Z,100897.53
2023-01-07T14:08:01.294Z,100893.03
2023-01-07T14:10:36.619Z,100884.81
2023-01-07T14:13:24.595Z,100889.03
2023-01-07T14:16:02.396Z,100883.66
2023-01-07T14:18:55.439Z,100885.66
2023-01-07T14:21:57.040Z,100873.41
2023-01-07T14:24:40.568Z,100870.59
2023-01-07T14:27:25.758Z,100872.41
2023-01-07T14:29:56.534Z,100873.06
2023-01-07T14:32:30.515Z,100866.72
2023-01-07T14:34:59.351Z,100867.72
2023-01-07T14:37:46.864Z,100857.84
2023-01-07T14:40:34.617Z,100853.47
2023-01-07T14:43:05.230Z,100852.56
2023-01-07T14:45:40.840Z,100843.69
2023-01-07T14:48:09.998Z,100847.22
2023-01-07T14:51:09.530Z,100842.31
2023-01-07T14:53:49.868Z,100832.75
2023-01-07T14:56:20.831Z,100837.88
2023-01-07T14:59:15.604Z,100830.06
2023-01-07T15:01:48.624Z,100834.38
2023-01-07T15:04:18.132Z,100826.44
2023-01-07T15:06:46.190Z,100818.41
2023-01-07T15:09:44.252Z,100827.75
2023-01-07T15:12:40.718Z,100825.38
2023-01-07T15:15:38.813Z,100816.47
2023-01-07T15:18:10.058Z,100815.53
2023-01-07T15:21:01.466Z,100799.31
2023-01-07T15:23:55.276Z,100794.47
2023-01-07T15:26:54.109Z,100799.28
2023-01-07T15:29:36.994Z,100797.91
2023-01-07T15:32:45.227Z,100787.50
2023-01-07T15:35:21.757Z,100784.78
2023-01-07T15:37:50.461Z,100785.38
2023-01-07T15:40:22.970Z,100783.00
2023-01-07T15:42:53.426Z,100773.78
2023-01-07T15:45:23.296Z,100774.38
2023-01-07T15:47:50.474Z,100774.88
2023-01-07T15:50:37.253Z,100779.69
2023-01-07T15:53:18.706Z,100761.94
2023-01-07T15:56:02.431Z,100766.00
2023-01-07T15:58:46.170Z,100759.88
2023-01-07T16:01:21.526Z,100756.66
2023-01-07T16:03:51.661Z,100747.47
2023-01-07T16:06:39.129Z,100748.00
2023-01-07T16:09:21.013Z,100743.06
2023-01-07T16:11:47.612Z,100740.88
2023-01-07T16:14:19.551Z,100732.25
2023-01-07T16:16:46.172Z,100735.75
2023-01-07T16:19:20.782Z,100728.13
2023-01-07T16:21:53.052Z,100719.75
2023-01-07T16:24:19.780Z,100714.22
2023-01-07T16:26:49.008Z,100711.56
2023-01-07T16:29:23.728Z,100718.44
2023-01-07T16:31:50.334Z,100712.41
2023-01-07T16:34:25.544Z,100706.06
2023-01-07T16:37:03.495Z,100708.88
2023-01-07T16:39:34.674Z,100704.03
2023-01-07T16:42:20.165Z,100698.97
2023-01-07T16:44:46.794Z,100702.34
2023-01-07T16:47:31.418Z,100696.16
2023-01-07T16:49:59.390Z,100688.75
2023-01-07T16:52:31.493Z,100679.81
2023-01-07T16:54:57.939Z,100684.50
2023-01-07T16:57:41.614Z,100690.53
2023-01-07T17:00:20.152Z,100681.28
2023-01-07T17:02:56.574Z,100678.72
2023-01-07T17:05:25.339Z,100673.81
2023-01-07T17:08:05.146Z,100682.16
2023-01-07T17:10:40.661Z,100684.97
2023-01-07T17:13:31.559Z,100683.44
2023-01-07T17:16:21.495Z,100675.69
2023-01-07T17:18:48.131Z,100680.50
2023-01-07T17:21:44.115Z,100661.72
2023-01-07T17:24:46.403Z,100662.09
2023-01-07T17:27:22.172Z,100653.00
2023-01-07T17:29:49.878Z,100630.84
2023-01-07T17:32:16.533Z,100654.06
2023-01-07T17:34:43.218Z,100656.72
2023-01-07T17:37:15.601Z,100637.63
2023-01-07T17:39:43.445Z,100657.78
2023-01-07T17:42:40.208Z,100637.09
2023-01-07T17:45:07.580Z,100645.41
2023-01-07T17:47:34.008Z,100651.78
2023-01-07T17:50:01.447Z,100641.53
2023-01-07T17:52:28.893Z,100646.19
2023-01-07T17:54:55.335Z,100646.94
2023-01-07T17:57:21.748Z,100637.78
2023-01-07T17:59:48.175Z,100632.91
2023-01-07T18:02:19.843Z,100628.41
2023-01-07T18:04:46.725Z,100618.19
2023-01-07T18:07:15.539Z,100615.19
2023-01-07T18:09:42.758Z,100608.19
2023-01-07T18:12:31.515Z,100611.28
2023-01-07T18:15:02.766Z,100612.28
2023-01-07T18:17:29.798Z,100614.81
2023-01-07T18:19:56.485Z,100607.09
2023-01-07T18:22:25.204Z,100609.47
2023-01-07T18:24:51.739Z,100603.03
2023-01-07T18:27:19.232Z,100613.56
2023-01-07T18:29:45.671Z,100613.56
2023-01-07T18:32:12.104Z,100608.09
2023-01-07T18:34:38.642Z,100605.72
2023-01-07T18:37:05.190Z,100606.19
2023-01-07T18:39:31.617Z,100608.16
2023-01-07T18:41:58.164Z,100608.63
2023-01-07T18:44:24.980Z,100603.88
2023-01-07T18:46:51.481Z,100601.88
2023-01-07T18:49:17.882Z,100604.19
2023-01-07T18:51:46.877Z,100599.97
2023-01-07T18:54:13.605Z,100602.81
2023-01-07T18:56:40.167Z,100600.28
2023-01-07T18:59:06.709Z,100601.41
2023-01-07T19:01:33.306Z,100597.06
2023-01-07T19:03:59.977Z,100590.03
2023-01-07T19:06:26.893Z,100587.53
2023-01-07T19:08:55.328Z,100590.22
2023-01-07T19:11:22.334Z,100586.47
2023-01-07T19:13:48.760Z,100577.31
2023-01-07T19:16:15.504Z,100584.34
2023-01-07T19:18:42.038Z,100574.50
2023-01-07T19:21:12.505Z,100570.97
2023-01-07T19:23:39.192Z,100560.19
2023-01-07T19:26:07.712Z,100579.13
2023-01-07T19:28:34.192Z,100568.91
2023-01-07T19:31:05.072Z,100576.91
2023-01-07T19:33:31.653Z,100571.72
2023-01-07T19:36:02.747Z,100559.00
2023-01-07T19:38:29.340Z,100554.50
2023-01-07T19:40:55.786Z,100544.41
2023-01-07T19:43:22.303Z,100548.06
2023-01-07T19:45:56.410Z,100542.03
2023-01-07T19:48:23.725Z,100530.72
2023-01-07T19:50:57.802Z,100545.31
2023-01-07T19:53:25.142Z,100540.28
2023-01-07T19:55:54.065Z,100526.81
2023-01-07T19:58:21.420Z,100525.13
2023-01-07T20:00:47.968Z,100534.97
2023-01-07T20:03:14.452Z,100523.63
2023-01-07T20:05:40.956Z,100520.97
2023-01-07T20:08:07.443Z,100516.75
2023-01-07T20:10:33.998Z,100505.09
2023-01-07T20:13:00.471Z,100505.25
2023-01-07T20:15:27.223Z,100504.56
2023-01-07T20:17:53.842Z,100490.81
2023-01-07T20:20:20.253Z,100490.13
2023-01-07T20:22:49.343Z,100479.63
2023-01-07T20:25:15.819Z,100494.63
2023-01-07T20:27:42.207Z,100485.47
2023-01-07T20:30:09.504Z,100475.81
2023-01-07T20:32:35.887Z,100484.75
2023-01-07T20:35:02.401Z,100469.59
2023-01-07T20:37:29.015Z,100469.44
2023-01-07T20:39:55.515Z,100462.78
2023-01-07T20:42:22.610Z,100450.97
2023-01-07T20:44:51.559Z,100452.28
2023-01-07T20:47:18.604Z,100450.16
2023-01-07T20:49:45.341Z,100445.34
2023-01-07T20:52:11.785Z,100433.53
2023-01-07T20:54:38.288Z,100430.88
2023-01-07T20:57:04.705Z,100434.09
2023-01-07T20:59:31.296Z,100444.59
2023-01-07T21:01:57.887Z,100445.13
2023-01-07T21:04:24.842Z,100435.44
2023-01-07T21:06:51.258Z,100431.47
2023-01-07T21:09:19.607Z,100426.59
2023-01-07T21:11:47.272Z,100429.19
2023-01-07T21:14:13.709Z,100424.56
2023-01-07T21:16:40.414Z,100419.06
2023-01-07T21:19:06.906Z,100419.28
2023-01-07T21:21:33.373Z,100416.59
2023-01-07T21:23:59.807Z,100408.28
2023-01-07T21:26:26.287Z,100401.97
2023-01-07T21:28:55.827Z,100405.47
2023-01-07T21:31:23.631Z,100406.84
2023-01-07T21:33:54.916Z,100403.16
2023-01-07T21:36:21.607Z,100402.50
2023-01-07T21:38:54.049Z,100403.16
2023-01-07T21:41:21.697Z,100411.00
2023-01-07T21:43:48.682Z,100403.00
2023-01-07T21:46:15.702Z,100402.84
2023-01-07T21:48:46.687Z,100401.72
2023-01-07T21:51:25.343Z,100412.94
2023-01-07T21:53:55.634Z,100400.88
2023-01-07T21:56:23.130Z,100404.22
2023-01-07T21:58:49.674Z,100391.88
2023-01-07T22:01:17.839Z,100399.88
2023-01-07T22:03:47.410Z,100393.16
2023-01-07T22:06:25.473Z,100409.25
2023-01-07T22:08:57.016Z,100405.22
2023-01-07T22:11:23.622Z,100407.88
2023-01-07T22:13:54.914Z,100404.53
2023-01-07T22:16:22.720Z,100410.03
2023-01-07T22:18:49.473Z,100393.00
2023-01-07T22:21:17.103Z,100399.88
2023-01-07T22:23:47.890Z,100387.38
2023-01-07T22:26:15.880Z,100371.66
2023-01-07T22:28:45.871Z,100380.50
2023-01-07T22:31:21.230Z,100380.03
2023-01-07T22:33:47.805Z,100372.03
2023-01-07T22:36:21.314Z,100369.91
2023-01-07T22:38:48.696Z,100364.41
2023-01-07T22:41:15.414Z,100361.41
2023-01-07T22:43:41.905Z,100363.59
2023-01-07T22:46:19.156Z,100351.78
2023-01-07T22:48:45.711Z,100368.31
2023-01-07T22:51:19.840Z,100365.16
2023-01-07T22:53:48.793Z,100344.44
2023-01-07T22:56:15.466Z,100354.84
2023-01-07T22:58:41.882Z,100349.50
2023-01-07T23:01:13.056Z,100343.69
2023-01-07T23:03:40.532Z,100341.03
2023-01-07T23:06:07.764Z,100334.34
2023-01-07T23:08:34.660Z,100330.06
2023-01-07T23:11:01.510Z,100326.91
2023-01-07T23:13:27.929Z,100326.91
2023-01-07T23:15:54.692Z,100318.38
2023-01-07T23:18:21.707Z,100321.06
2023-01-07T23:20:48.186Z,100309.22
2023-01-07T23:23:15.848Z,100310.06
2023-01-07T23:25:47.346Z,100305.91
2023-01-07T23:28:15.245Z,100316.59
2023-01-07T23:30:41.818Z,100313.94
2023-01-07T23:33:08.745Z,100312.78
2023-01-07T23:35:35.610Z,100315.59
2023-01-07T23:38:03.760Z,100309.25
2023-01-07T23:40:30.428Z,100306.75
2023-01-07T23:42:57.785Z,100305.28
2023-01-07T23:45:24.539Z,100298.09
2023-01-07T23:47:50.936Z,100302.13
2023-01-07T23:50:17.489Z,100300.44
2023-01-07T23:52:43.890Z,100295.78
2023-01-07T23:55:10.661Z,100293.13
2023-01-07T23:57:37.121Z,100294.63
